Yasemin — 9HA2114 — position and weather

sailwx.info

Track history (hours):
 
Tides and Currents Weather Stations Pressure Air Temp Water Temp Dewpoint Dewpoint Depression Visibility Wind Speed Wind Dir Waves Ship Positions

Yasemin

Last reported at 2015-Jul-31 01:30 UTC. Time now 2015-Aug-04 07:30 UTC.
Position N 37°21' E 023°58'.

Length 105 m; draft 4.5 m.

Type: Cargo ship. MMSI: 249988000.

Date/timePositionNaut miles runAvg speedWind from/ knotsBaromVisibWave heightAir tempDewpointWater temp
2015-Jul-31 01:30N 37°21' E 023°58'1111.9
2015-Jul-31 00:33N 37°11' E 023°51'1211.8
2015-Jul-30 23:33N 37°02' E 023°43'1212.0
2015-Jul-30 22:33N 36°52' E 023°34'3511.7
2015-Jul-30 19:31N 36°22' E 023°09'39412.0
2015-Jul-29 10:33N 36°28' E 014°59'1212.5
2015-Jul-29 09:33N 36°29' E 014°44'1312.9
2015-Jul-29 08:33N 36°29' E 014°28'1312.7
2015-Jul-29 07:33N 36°29' E 014°12'1212.5
2015-Jul-29 06:33N 36°32' E 013°57'1212.4
2015-Jul-29 05:33N 36°36' E 013°42'1212.5
2015-Jul-29 04:34N 36°40' E 013°28'1212.4
2015-Jul-29 03:33N 36°45' E 013°13'1412.2
2015-Jul-29 02:26N 36°49' E 012°57'1112.0
2015-Jul-29 01:34N 36°53' E 012°45'1211.9
2015-Jul-29 00:33N 36°57' E 012°30'1211.8
2015-Jul-28 23:33N 37°01' E 012°17'1512.1
2015-Jul-28 22:17N 37°07' E 011°59'1112.1
2015-Jul-28 21:22N 37°11' E 011°46'1012.0
2015-Jul-28 20:32N 37°14' E 011°34'1212.3
2015-Jul-28 19:33N 37°18' E 011°20'3310.6
2015-Jul-28 16:26N 37°07' E 010°41'  
2015-Jul-24 23:32N 36°42' E 013°51'1110.9
2015-Jul-24 22:33N 36°39' E 014°04'1111.1
2015-Jul-24 21:33N 36°35' E 014°17'1110.9
2015-Jul-24 20:33N 36°31' E 014°29'1010.3
2015-Jul-24 19:33N 36°28' E 014°41'10 9.9
2015-Jul-24 18:33N 36°24' E 014°53'  
2015-Jul-21 13:13N 40°59' E 028°55'0 0.0
2015-Jul-21 12:31N 40°59' E 028°55'0 0.0
2015-Jul-21 11:19N 40°59' E 028°55'  
Track history (hours):
 
Tides and Currents Weather Stations Pressure Air Temp Water Temp Dewpoint Dewpoint Depression Visibility Wind Speed Wind Dir Waves Ship Positions

Yasemin

Last reported at 2015-Jul-31 01:30 UTC. Time now 2015-Aug-04 07:30 UTC.
Position N 37°21' E 023°58'.

Length 105 m; draft 4.5 m.

Type: Cargo ship. MMSI: 249988000.

Date/timePositionNaut miles runAvg speedWind from/ knotsBaromVisibWave heightAir tempDewpointWater temp
2015-Jul-31 01:30N 37°21' E 023°58'1111.9
2015-Jul-31 00:33N 37°11' E 023°51'1211.8
2015-Jul-30 23:33N 37°02' E 023°43'1212.0
2015-Jul-30 22:33N 36°52' E 023°34'3511.7
2015-Jul-30 19:31N 36°22' E 023°09'39412.0
2015-Jul-29 10:33N 36°28' E 014°59'1212.5
2015-Jul-29 09:33N 36°29' E 014°44'1312.9
2015-Jul-29 08:33N 36°29' E 014°28'1312.7
2015-Jul-29 07:33N 36°29' E 014°12'1212.5
2015-Jul-29 06:33N 36°32' E 013°57'1212.4
2015-Jul-29 05:33N 36°36' E 013°42'1212.5
2015-Jul-29 04:34N 36°40' E 013°28'1212.4
2015-Jul-29 03:33N 36°45' E 013°13'1412.2
2015-Jul-29 02:26N 36°49' E 012°57'1112.0
2015-Jul-29 01:34N 36°53' E 012°45'1211.9
2015-Jul-29 00:33N 36°57' E 012°30'1211.8
2015-Jul-28 23:33N 37°01' E 012°17'1512.1
2015-Jul-28 22:17N 37°07' E 011°59'1112.1
2015-Jul-28 21:22N 37°11' E 011°46'1012.0
2015-Jul-28 20:32N 37°14' E 011°34'1212.3
2015-Jul-28 19:33N 37°18' E 011°20'3310.6
2015-Jul-28 16:26N 37°07' E 010°41'  
2015-Jul-24 23:32N 36°42' E 013°51'1110.9
2015-Jul-24 22:33N 36°39' E 014°04'1111.1
2015-Jul-24 21:33N 36°35' E 014°17'1110.9
2015-Jul-24 20:33N 36°31' E 014°29'1010.3
2015-Jul-24 19:33N 36°28' E 014°41'10 9.9
2015-Jul-24 18:33N 36°24' E 014°53'  
2015-Jul-21 13:13N 40°59' E 028°55'0 0.0
2015-Jul-21 12:31N 40°59' E 028°55'0 0.0
2015-Jul-21 11:19N 40°59' E 028°55'  

Dump ship's entire track history